Surface/Precipitation History
09/26/2016 12:58  to  9/27/2016 12:58
Change End Date:
Date/Time
(MDT)
Sf
Temp Chem Water Layer Surface Precipitation
Sfc Pvt Sub Frz Factor Pct Dpth DpthThk IcePct Cond Salin FI Type Intens Accum Rate
09/27/2016 12:55 Dry 91.0F - 57F - - - - - - 35 mhos 2082 - None None - -
09/27/2016 12:48 Dry 90.3F - 57F - - - - - - 35 mhos 2095 - None None - -
09/27/2016 12:40 Dry 89.2F - 57F - - - - - - 36 mhos 2128 - None None - -
09/27/2016 12:38 Dry 88.2F - 57F - - - - - - 36 mhos 2162 - None None - -
09/27/2016 12:28 Dry 86.7F - 57F - - - - - - 36 mhos 2202 - None None - -
09/27/2016 12:25 Dry 85.8F - 57F - - - - - - 36 mhos 2220 - None None - -
09/27/2016 12:18 Dry 85.1F - 57F - - - - - - 36 mhos 2250 - None None - -
09/27/2016 12:10 Dry 83.7F - 57F - - - - - - 36 mhos 2296 - None None - -
09/27/2016 12:08 Dry 83.3F - 57F - - - - - - 36 mhos 2302 - None None - -
09/27/2016 11:58 Dry 81.5F - 57F - - - - - - 37 mhos 2357 - None None - -
09/27/2016 11:55 Dry 80.8F - 57F - - - - - - 37 mhos 2390 - None None - -
09/27/2016 11:48 Dry 79.7F - 57F - - - - - - 37 mhos 2413 - None None - -
09/27/2016 11:40 Dry 78.1F - 57F - - - - - - 37 mhos 2465 - None None - -
09/27/2016 11:38 Dry 77.5F - 57F - - - - - - 37 mhos 2494 - None None - -
09/27/2016 11:28 Dry 75.7F - 57F - - - - - - 37 mhos 2538 - None None - -
Date/Time
(MDT)
Sf
Temp Chem Water Layer Surface Precipitation
Sfc Pvt Sub Frz Factor Pct Dpth DpthThk IcePct Cond Salin FI Type Intens Accum Rate
09/27/2016 11:25 Dry 75.2F - 57F - - - - - - 38 mhos 2571 - None None - -
09/27/2016 11:18 Dry 73.9F - 57F - - - - - - 38 mhos 2602 - None None - -
09/27/2016 11:10 Dry 72.3F - 57F - - - - - - 38 mhos 2661 - None None - -
09/27/2016 11:08 Dry 72.0F - 57F - - - - - - 38 mhos 2673 - None None - -
09/27/2016 10:58 Dry 70.0F - 57F - - - - - - 38 mhos 2748 - None None - -
09/27/2016 10:55 Dry 69.4F - 57F - - - - - - 38 mhos 2761 - None None - -
09/27/2016 10:47 Dry 67.8F - 57F - - - - - - 38 mhos 2826 - None None - -
09/27/2016 10:40 Dry 66.4F - 57F - - - - - - 38 mhos 2872 - None None - -
09/27/2016 10:37 Dry 66.0F - 57F - - - - - - 39 mhos 2904 - None None - -
09/27/2016 10:27 Dry 64.4F - 57F - - - - - - 39 mhos 2952 - None None - -
09/27/2016 10:25 Dry 63.9F - 57F - - - - - - 39 mhos 2972 - None None - -
09/27/2016 10:17 Dry 62.6F - 57F - - - - - - 39 mhos 3013 - None None - -
09/27/2016 10:10 Dry 61.0F - 57F - - - - - - 39 mhos 3089 - None None - -
09/27/2016 10:07 Dry 60.6F - 57F - - - - - - 39 mhos 3105 - None None - -
09/27/2016 09:57 Dry 58.6F - 57F - - - - - - 39 mhos 3178 - None None - -
Date/Time
(MDT)
Sf
Temp Chem Water Layer Surface Precipitation
Sfc Pvt Sub Frz Factor Pct Dpth DpthThk IcePct Cond Salin FI Type Intens Accum Rate
09/27/2016 09:55 Dry 58.3F - 57F - - - - - - 39 mhos 3189 - None None - -
09/27/2016 09:47 Dry 56.7F - 58F - - - - - - 39 mhos 3273 - None None - -
09/27/2016 09:40 Dry 55.2F - 58F - - - - - - 39 mhos 3328 - None None - -
09/27/2016 09:37 Dry 54.7F - 58F - - - - - - 39 mhos 3354 - None None - -
09/27/2016 09:27 Dry 52.3F - 58F - - - - - - 39 mhos 3422 - None None - -
09/27/2016 09:25 Dry 52.0F - 58F - - - - - - 39 mhos 3439 - None None - -
09/27/2016 09:17 Dry 50.5F - 58F - - - - - - 39 mhos 3501 - None None - -
09/27/2016 09:10 Dry 49.1F - 58F - - - - - - 39 mhos 3565 - None None - -
09/27/2016 09:07 Dry 48.7F - 58F - - - - - - 39 mhos 3587 - None None - -
09/27/2016 08:57 Dry 46.9F - 58F - - - - - - 39 mhos 3641 - None None - -
09/27/2016 08:55 Dry 46.6F - 58F - - - - - - 39 mhos 3657 - None None - -
09/27/2016 08:47 Dry 45.1F - 58F - - - - - - 38 mhos 3669 - None None - -
09/27/2016 08:40 Dry 44.1F - 58F - - - - - - 38 mhos 3755 - None None - -
09/27/2016 08:37 Dry 43.5F - 58F - - - - - - 38 mhos 3780 - None None - -
09/27/2016 08:27 Dry 42.3F - 58F - - - - - - 38 mhos 3857 - None None - -
Date/Time
(MDT)
Sf
Temp Chem Water Layer Surface Precipitation
Sfc Pvt Sub Frz Factor Pct Dpth DpthThk IcePct Cond Salin FI Type Intens Accum Rate
09/27/2016 08:25 Dry 42.1F - 58F - - - - - - 38 mhos 3866 - None None - -
09/27/2016 08:17 Dry 41.2F - 58F - - - - - - 38 mhos 3910 - None None - -
09/27/2016 08:10 Dry 41.0F - 58F - - - - - - 38 mhos 3896 - None None - -
09/27/2016 08:07 Dry 40.6F - 58F - - - - - - 38 mhos 3884 - None None - -
09/27/2016 07:57 Dry 39.7F - 58F - - - - - - 38 mhos 3997 - None None - -
09/27/2016 07:55 Dry 39.7F - 58F - - - - - - 38 mhos 4001 - None None - -
09/27/2016 07:47 Dry 39.4F - 58F - - - - - - 38 mhos 4020 - None None - -
09/27/2016 07:40 Dry 39.2F - 58F - - - - - - 39 mhos 4062 - None None - -
09/27/2016 07:37 Dry 39.4F - 58F - - - - - - 39 mhos 4052 - None None - -
09/27/2016 07:26 Dry 39.4F - 58F - - - - - - 39 mhos 4052 - None None - -
09/27/2016 07:25 Dry 39.4F - 58F - - - - - - 39 mhos 4052 - None None - -
09/27/2016 07:16 Dry 39.6F - 58F - - - - - - 39 mhos 4043 - None None - -
09/27/2016 07:10 Dry 39.6F - 58F - - - - - - 39 mhos 4043 - None None - -
09/27/2016 07:06 Dry 39.7F - 59F - - - - - - 39 mhos 4033 - None None - -
09/27/2016 06:56 Dry 39.7F - 59F - - - - - - 39 mhos 4057 - None None - -
Date/Time
(MDT)
Sf
Temp Chem Water Layer Surface Precipitation
Sfc Pvt Sub Frz Factor Pct Dpth DpthThk IcePct Cond Salin FI Type Intens Accum Rate
09/27/2016 06:55 Dry 39.7F - 59F - - - - - - 39 mhos 4057 - None None - -
09/27/2016 06:46 Dry 39.9F - 59F - - - - - - 39 mhos 4047 - None None - -
09/27/2016 06:40 Dry 40.1F - 59F - - - - - - 39 mhos 4038 - None None - -
09/27/2016 06:36 Dry 40.1F - 59F - - - - - - 39 mhos 4038 - None None - -
09/27/2016 06:26 Dry 40.5F - 59F - - - - - - 39 mhos 4019 - None None - -
09/27/2016 06:25 Dry 40.5F - 59F - - - - - - 39 mhos 4019 - None None - -
09/27/2016 06:16 Dry 40.8F - 59F - - - - - - 39 mhos 4001 - None None - -
09/27/2016 06:10 Dry 40.8F - 59F - - - - - - 39 mhos 4001 - None None - -
09/27/2016 06:06 Dry 40.8F - 59F - - - - - - 39 mhos 4001 - None None - -
09/27/2016 05:56 Dry 41.0F - 59F - - - - - - 39 mhos 4023 - None None - -
09/27/2016 05:55 Dry 40.8F - 59F - - - - - - 39 mhos 4029 - None None - -
09/27/2016 05:46 Dry 41.0F - 59F - - - - - - 39 mhos 4014 - None None - -
09/27/2016 05:40 Dry 41.2F - 59F - - - - - - 39 mhos 4005 - None None - -
09/27/2016 05:36 Dry 41.2F - 59F - - - - - - 39 mhos 4005 - None None - -
09/27/2016 05:26 Dry 41.5F - 59F - - - - - - 39 mhos 3987 - None None - -
Date/Time
(MDT)
Sf
Temp Chem Water Layer Surface Precipitation
Sfc Pvt Sub Frz Factor Pct Dpth DpthThk IcePct Cond Salin FI Type Intens Accum Rate
09/27/2016 05:25 Dry 41.5F - 59F - - - - - - 39 mhos 3987 - None None - -
09/27/2016 05:16 Dry 41.7F - 59F - - - - - - 39 mhos 3978 - None None - -
09/27/2016 05:10 Dry 42.1F - 59F - - - - - - 39 mhos 3960 - None None - -
09/27/2016 05:06 Dry 42.3F - 59F - - - - - - 39 mhos 3951 - None None - -
09/27/2016 04:56 Dry 42.3F - 59F - - - - - - 40 mhos 3983 - None None - -
09/27/2016 04:55 Dry 42.3F - 59F - - - - - - 39 mhos 3951 - None None - -
09/27/2016 04:46 Dry 42.3F - 59F - - - - - - 40 mhos 3974 - None None - -
09/27/2016 04:40 Dry 42.4F - 60F - - - - - - 40 mhos 3965 - None None - -
09/27/2016 04:36 Dry 42.4F - 60F - - - - - - 40 mhos 3965 - None None - -
09/27/2016 04:26 Dry 43.0F - 60F - - - - - - 40 mhos 3938 - None None - -
09/27/2016 04:25 Dry 43.0F - 60F - - - - - - 40 mhos 3938 - None None - -
09/27/2016 04:15 Dry 43.2F - 60F - - - - - - 40 mhos 3930 - None None - -
09/27/2016 04:10 Dry 43.3F - 60F - - - - - - 40 mhos 3921 - None None - -
09/27/2016 04:05 Dry 43.5F - 60F - - - - - - 40 mhos 3912 - None None - -
09/27/2016 03:55 Dry 43.7F - 60F - - - - - - 40 mhos 3895 - None None - -
Date/Time
(MDT)
Sf
Temp Chem Water Layer Surface Precipitation
Sfc Pvt Sub Frz Factor Pct Dpth DpthThk IcePct Cond Salin FI Type Intens Accum Rate
09/27/2016 03:55 Dry 43.7F - 60F - - - - - - 40 mhos 3895 - None None - -
09/27/2016 03:45 Dry 43.9F - 60F - - - - - - 40 mhos 3886 - None None - -
09/27/2016 03:40 Dry 44.1F - 60F - - - - - - 40 mhos 3877 - None None - -
09/27/2016 03:35 Dry 44.2F - 60F - - - - - - 40 mhos 3869 - None None - -
09/27/2016 03:25 Dry 44.4F - 60F - - - - - - 40 mhos 3860 - None None - -
09/27/2016 03:25 Dry 44.4F - 60F - - - - - - 40 mhos 3860 - None None - -
09/27/2016 03:15 Dry 44.8F - 60F - - - - - - 40 mhos 3843 - None None - -
09/27/2016 03:10 Dry 45.0F - 60F - - - - - - 40 mhos 3835 - None None - -
09/27/2016 03:05 Dry 45.0F - 60F - - - - - - 40 mhos 3835 - None None - -
09/27/2016 02:55 Dry 45.1F - 60F - - - - - - 40 mhos 3818 - None None - -
09/27/2016 02:55 Dry 45.1F - 60F - - - - - - 40 mhos 3818 - None None - -
09/27/2016 02:45 Dry 45.3F - 60F - - - - - - 40 mhos 3810 - None None - -
09/27/2016 02:40 Dry 45.5F - 60F - - - - - - 40 mhos 3802 - None None - -
09/27/2016 02:35 Dry 45.5F - 60F - - - - - - 40 mhos 3802 - None None - -
09/27/2016 02:25 Dry 46.0F - 60F - - - - - - 40 mhos 3777 - None None - -
Date/Time
(MDT)
Sf
Temp Chem Water Layer Surface Precipitation
Sfc Pvt Sub Frz Factor Pct Dpth DpthThk IcePct Cond Salin FI Type Intens Accum Rate
09/27/2016 02:15 Dry 46.2F - 60F - - - - - - 40 mhos 3761 - None None - -
09/27/2016 02:10 Dry 46.2F - 60F - - - - - - 40 mhos 3761 - None None - -
09/27/2016 02:05 Dry 46.2F - 60F - - - - - - 40 mhos 3761 - None None - -
09/27/2016 01:55 Dry 46.4F - 60F - - - - - - 40 mhos 3753 - None None - -
09/27/2016 01:55 Dry 46.4F - 60F - - - - - - 40 mhos 3753 - None None - -
09/27/2016 01:45 Dry 46.9F - 60F - - - - - - 40 mhos 3729 - None None - -
09/27/2016 01:40 Dry 47.1F - 60F - - - - - - 40 mhos 3721 - None None - -
09/27/2016 01:35 Dry 47.3F - 60F - - - - - - 40 mhos 3713 - None None - -
09/27/2016 01:25 Dry 47.5F - 60F - - - - - - 40 mhos 3698 - None None - -
09/27/2016 01:25 Dry 47.5F - 60F - - - - - - 40 mhos 3698 - None None - -
09/27/2016 01:14 Dry 48.0F - 60F - - - - - - 40 mhos 3675 - None None - -
09/27/2016 01:10 Dry 48.2F - 60F - - - - - - 40 mhos 3667 - None None - -
09/27/2016 01:04 Dry 48.6F - 61F - - - - - - 40 mhos 3652 - None None - -
09/27/2016 00:55 Dry 48.7F - 61F - - - - - - 39 mhos 3608 - None None - -
09/27/2016 00:54 Dry 48.7F - 61F - - - - - - 39 mhos 3608 - None None - -
Date/Time
(MDT)
Sf
Temp Chem Water Layer Surface Precipitation
Sfc Pvt Sub Frz Factor Pct Dpth DpthThk IcePct Cond Salin FI Type Intens Accum Rate
09/27/2016 00:44 Dry 48.9F - 61F - - - - - - 40 mhos 3629 - None None - -
09/27/2016 00:40 Dry 49.1F - 61F - - - - - - 40 mhos 3622 - None None - -
09/27/2016 00:34 Dry 49.3F - 61F - - - - - - 40 mhos 3619 - None None - -
09/27/2016 00:25 Dry 49.6F - 61F - - - - - - 40 mhos 3600 - None None - -
09/27/2016 00:24 Dry 49.6F - 61F - - - - - - 40 mhos 3600 - None None - -
09/27/2016 00:14 Dry 50.0F - 61F - - - - - - 40 mhos 3585 - None None - -
09/27/2016 00:10 Dry 50.0F - 61F - - - - - - 40 mhos 3585 - None None - -
09/27/2016 00:04 Dry 50.0F - 61F - - - - - - 40 mhos 3578 - None None - -
09/26/2016 23:55 Dry 50.4F - 61F - - - - - - 40 mhos 3564 - None None - -
09/26/2016 23:54 Dry 50.4F - 61F - - - - - - 40 mhos 3564 - None None - -
09/26/2016 23:44 Dry 50.9F - 61F - - - - - - 40 mhos 3542 - None None - -
09/26/2016 23:40 Dry 50.9F - 61F - - - - - - 40 mhos 3542 - None None - -
09/26/2016 23:34 Dry 51.1F - 61F - - - - - - 39 mhos 3507 - None None - -
09/26/2016 23:25 Dry 51.3F - 61F - - - - - - 39 mhos 3493 - None None - -
09/26/2016 23:24 Dry 51.3F - 61F - - - - - - 39 mhos 3493 - None None - -
Date/Time
(MDT)
Sf
Temp Chem Water Layer Surface Precipitation
Sfc Pvt Sub Frz Factor Pct Dpth DpthThk IcePct Cond Salin FI Type Intens Accum Rate
09/26/2016 23:14 Dry 51.6F - 61F - - - - - - 40 mhos 3511 - None None - -
09/26/2016 23:10 Dry 51.8F - 61F - - - - - - 40 mhos 3500 - None None - -
09/26/2016 23:04 Dry 52.0F - 61F - - - - - - 39 mhos 3465 - None None - -
09/26/2016 22:55 Dry 52.5F - 61F - - - - - - 39 mhos 3445 - None None - -
09/26/2016 22:54 Dry 52.5F - 61F - - - - - - 39 mhos 3445 - None None - -
09/26/2016 22:44 Dry 53.1F - 61F - - - - - - 39 mhos 3419 - None None - -
09/26/2016 22:40 Dry 53.2F - 61F - - - - - - 39 mhos 3412 - None None - -
09/26/2016 22:34 Dry 53.4F - 61F - - - - - - 39 mhos 3405 - None None - -
09/26/2016 22:25 Dry 53.8F - 61F - - - - - - 39 mhos 3392 - None None - -
09/26/2016 22:24 Dry 53.8F - 61F - - - - - - 39 mhos 3386 - None None - -
09/26/2016 22:14 Dry 54.5F - 61F - - - - - - 39 mhos 3360 - None None - -
09/26/2016 22:10 Dry 54.5F - 61F - - - - - - 39 mhos 3360 - None None - -
09/26/2016 22:03 Dry 55.0F - 61F - - - - - - 39 mhos 3335 - None None - -
09/26/2016 21:55 Dry 55.9F - 60F - - - - - - 39 mhos 3304 - None None - -
09/26/2016 21:53 Dry 56.1F - 61F - - - - - - 39 mhos 3297 - None None - -
Date/Time
(MDT)
Sf
Temp Chem Water Layer Surface Precipitation
Sfc Pvt Sub Frz Factor Pct Dpth DpthThk IcePct Cond Salin FI Type Intens Accum Rate
09/26/2016 21:43 Dry 56.5F - 60F - - - - - - 39 mhos 3279 - None None - -
09/26/2016 21:40 Dry 56.7F - 60F - - - - - - 39 mhos 3248 - None None - -
09/26/2016 21:33 Dry 57.0F - 60F - - - - - - 39 mhos 3236 - None None - -
09/26/2016 21:25 Dry 57.4F - 60F - - - - - - 39 mhos 3224 - None None - -
09/26/2016 21:23 Dry 57.4F - 60F - - - - - - 39 mhos 3218 - None None - -
09/26/2016 21:13 Dry 57.9F - 60F - - - - - - 39 mhos 3201 - None None - -
09/26/2016 21:10 Dry 58.1F - 60F - - - - - - 39 mhos 3195 - None None - -
09/26/2016 21:03 Dry 58.6F - 60F - - - - - - 39 mhos 3178 - None None - -
09/26/2016 20:55 Dry 59.2F - 60F - - - - - - 39 mhos 3155 - None None - -
09/26/2016 20:53 Dry 59.4F - 60F - - - - - - 39 mhos 3149 - None None - -
09/26/2016 20:43 Dry 59.9F - 60F - - - - - - 39 mhos 3103 - None None - -
09/26/2016 20:40 Dry 60.1F - 60F - - - - - - 39 mhos 3122 - None None - -
09/26/2016 20:33 Dry 60.6F - 60F - - - - - - 39 mhos 3081 - None None - -
09/26/2016 20:25 Dry 61.0F - 60F - - - - - - 39 mhos 3070 - None None - -
09/26/2016 20:23 Dry 61.0F - 60F - - - - - - 39 mhos 3065 - None None - -
Date/Time
(MDT)
Sf
Temp Chem Water Layer Surface Precipitation
Sfc Pvt Sub Frz Factor Pct Dpth DpthThk IcePct Cond Salin FI Type Intens Accum Rate
09/26/2016 20:13 Dry 61.9F - 60F - - - - - - 39 mhos 3039 - None None - -
09/26/2016 20:10 Dry 62.1F - 60F - - - - - - 39 mhos 3033 - None None - -
09/26/2016 20:03 Dry 62.4F - 60F - - - - - - 39 mhos 3018 - None None - -
09/26/2016 19:55 Dry 63.3F - 60F - - - - - - 38 mhos 2969 - None None - -
09/26/2016 19:53 Dry 63.3F - 60F - - - - - - 38 mhos 2964 - None None - -
09/26/2016 19:43 Dry 64.4F - 59F - - - - - - 38 mhos 2935 - None None - -
09/26/2016 19:40 Dry 64.6F - 59F - - - - - - 38 mhos 2925 - None None - -
09/26/2016 19:33 Dry 65.5F - 59F - - - - - - 38 mhos 2879 - None None - -
09/26/2016 19:25 Dry 66.4F - 59F - - - - - - 38 mhos 2851 - None None - -
09/26/2016 19:23 Dry 66.7F - 59F - - - - - - 38 mhos 2841 - None None - -
09/26/2016 19:13 Dry 68.0F - 59F - - - - - - 38 mhos 2780 - None None - -
09/26/2016 19:10 Dry 68.5F - 59F - - - - - - 38 mhos 2766 - None None - -
09/26/2016 19:03 Dry 69.8F - 59F - - - - - - 38 mhos 2711 - None None - -
09/26/2016 18:55 Dry 71.6F - 59F - - - - - - 38 mhos 2662 - None None - -
09/26/2016 18:53 Dry 72.1F - 59F - - - - - - 38 mhos 2649 - None None - -
Date/Time
(MDT)
Sf
Temp Chem Water Layer Surface Precipitation
Sfc Pvt Sub Frz Factor Pct Dpth DpthThk IcePct Cond Salin FI Type Intens Accum Rate
09/26/2016 18:42 Dry 73.9F - 59F - - - - - - 37 mhos 2583 - None None - -
09/26/2016 18:40 Dry 74.5F - 59F - - - - - - 37 mhos 2549 - None None - -
09/26/2016 18:32 Dry 75.7F - 58F - - - - - - 37 mhos 2519 - None None - -
09/26/2016 18:25 Dry 76.6F - 58F - - - - - - 37 mhos 2498 - None None - -
09/26/2016 18:22 Dry 77.0F - 58F - - - - - - 37 mhos 2490 - None None - -
09/26/2016 18:12 Dry 78.3F - 58F - - - - - - 37 mhos 2444 - None None - -
09/26/2016 18:10 Dry 78.6F - 58F - - - - - - 37 mhos 2420 - None None - -
09/26/2016 18:02 Dry 79.2F - 58F - - - - - - 37 mhos 2406 - None None - -
09/26/2016 17:55 Dry 80.8F - 58F - - - - - - 36 mhos 2353 - None None - -
09/26/2016 17:52 Dry 81.1F - 58F - - - - - - 36 mhos 2346 - None None - -
09/26/2016 17:42 Dry 82.8F - 58F - - - - - - 36 mhos 2295 - None None - -
09/26/2016 17:40 Dry 83.3F - 58F - - - - - - 36 mhos 2286 - None None - -
09/26/2016 17:32 Dry 84.0F - 58F - - - - - - 36 mhos 2255 - None None - -
09/26/2016 17:25 Dry 84.7F - 58F - - - - - - 36 mhos 2240 - None None - -
09/26/2016 17:22 Dry 84.6F - 58F - - - - - - 36 mhos 2246 - None None - -
Date/Time
(MDT)
Sf
Temp Chem Water Layer Surface Precipitation
Sfc Pvt Sub Frz Factor Pct Dpth DpthThk IcePct Cond Salin FI Type Intens Accum Rate
09/26/2016 17:12 Dry 86.2F - 57F - - - - - - 36 mhos 2199 - None None - -
09/26/2016 17:10 Dry 86.5F - 57F - - - - - - 36 mhos 2193 - None None - -
09/26/2016 17:02 Dry 87.1F - 57F - - - - - - 36 mhos 2167 - None None - -
09/26/2016 16:55 Dry 87.8F - 57F - - - - - - 36 mhos 2155 - None None - -
09/26/2016 16:52 Dry 88.0F - 57F - - - - - - 36 mhos 2150 - None None - -
09/26/2016 16:42 Dry 87.8F - 57F - - - - - - 35 mhos 2138 - None None - -
09/26/2016 16:40 Dry 88.2F - 57F - - - - - - 35 mhos 2133 - None None - -
09/26/2016 16:32 Dry 89.2F - 57F - - - - - - 35 mhos 2099 - None None - -
09/26/2016 16:25 Dry 90.7F - 57F - - - - - - 35 mhos 2073 - None None - -
09/26/2016 16:22 Dry 91.6F - 57F - - - - - - 35 mhos 2047 - None None - -
09/26/2016 16:12 Dry 92.1F - 56F - - - - - - 35 mhos 2037 - None None - -
09/26/2016 16:10 Dry 92.3F - 56F - - - - - - 35 mhos 2034 - None None - -
09/26/2016 16:02 Dry 92.8F - 56F - - - - - - 35 mhos 2011 - None None - -
09/26/2016 15:55 Dry 93.4F - 56F - - - - - - 1 mhos 41 - None None - -
09/26/2016 15:52 Dry 93.4F - 56F - - - - - - 1 mhos 41 - None None - -
Date/Time
(MDT)
Sf
Temp Chem Water Layer Surface Precipitation
Sfc Pvt Sub Frz Factor Pct Dpth DpthThk IcePct Cond Salin FI Type Intens Accum Rate
09/26/2016 15:41 Dry 94.5F - 56F - - - - - - 34 mhos 1973 - None None - -
09/26/2016 15:40 Dry 94.5F - 56F - - - - - - 34 mhos 1973 - None None - -
09/26/2016 15:31 Dry 95.2F - 56F - - - - - - 34 mhos 1961 - None None - -
09/26/2016 15:25 Dry 95.2F - 56F - - - - - - 34 mhos 1961 - None None - -
09/26/2016 15:21 Dry 95.7F - 56F - - - - - - 34 mhos 1941 - None None - -
09/26/2016 15:11 Dry 95.5F - 56F - - - - - - 34 mhos 1943 - None None - -
09/26/2016 15:10 Dry 95.4F - 56F - - - - - - 34 mhos 1958 - None None - -
09/26/2016 15:01 Dry 95.2F - 56F - - - - - - 34 mhos 1948 - None None - -
09/26/2016 14:55 Dry 95.9F - 56F - - - - - - 34 mhos 1936 - None None - -
09/26/2016 14:51 Dry 96.4F - 55F - - - - - - 34 mhos 1929 - None None - -
09/26/2016 14:41 Dry 95.0F - 55F - - - - - - 34 mhos 1963 - None None - -
09/26/2016 14:40 Dry 94.8F - 55F - - - - - - 34 mhos 1965 - None None - -
09/26/2016 14:31 Dry 93.7F - 55F - - - - - - 35 mhos 1996 - None None - -
09/26/2016 14:25 Dry 91.6F - 55F - - - - - - 35 mhos 2047 - None None - -
09/26/2016 14:21 Dry 90.5F - 55F - - - - - - 35 mhos 2078 - None None - -
Date/Time
(MDT)
Sf
Temp Chem Water Layer Surface Precipitation
Sfc Pvt Sub Frz Factor Pct Dpth DpthThk IcePct Cond Salin FI Type Intens Accum Rate
09/26/2016 14:11 Dry 89.6F - 55F - - - - - - 35 mhos 2091 - None None - -
09/26/2016 14:10 Dry 89.6F - 55F - - - - - - 35 mhos 2091 - None None - -
09/26/2016 14:01 Dry 90.3F - 55F - - - - - - 35 mhos 2081 - None None - -
09/26/2016 13:55 Dry 89.2F - 55F - - - - - - 35 mhos 2114 - None None - -
09/26/2016 13:51 Dry 91.6F - 55F - - - - - - 35 mhos 2060 - None None - -
09/26/2016 13:41 Dry 89.2F - 55F - - - - - - 35 mhos 2114 - None None - -
09/26/2016 13:40 Dry 89.2F - 55F - - - - - - 35 mhos 2114 - None None - -
09/26/2016 13:31 Dry 91.6F - 55F - - - - - - 35 mhos 2060 - None None - -
09/26/2016 13:25 Dry 89.6F - 55F - - - - - - 35 mhos 2106 - None None - -
09/26/2016 13:21 Dry 89.4F - 55F - - - - - - 35 mhos 2111 - None None - -
09/26/2016 13:11 Dry 88.7F - 55F - - - - - - 36 mhos 2136 - None None - -
09/26/2016 13:10 Dry 88.2F - 55F - - - - - - 36 mhos 2147 - None None - -
09/26/2016 13:01 Dry 87.6F - 55F - - - - - - 36 mhos 2173 - None None - -
Change End Date:

Copyright © 1998-2015 Vaisala, Inc.
All Rights Reserved
Send comments about the data to:
SCAN Web ® is a registered trademark of Vaisala, Inc.
SCAN Web Version 6.0